createdAt,value
2023-02-27T13:33:32.641Z,21.65
2023-02-27T13:34:16.230Z,21.61
2023-02-27T13:34:39.386Z,21.75
2023-02-27T13:35:20.276Z,21.84
2023-02-27T13:36:24.644Z,21.98
2023-02-27T13:36:39.657Z,22.19
2023-02-27T13:36:59.283Z,22.21
2023-02-27T13:37:11.315Z,21.43
2023-02-27T13:37:23.064Z,21.26
2023-02-27T13:38:03.802Z,21.34
2023-02-27T13:38:35.412Z,21.51
2023-02-27T13:38:51.017Z,21.61
2023-02-27T13:39:03.405Z,21.67
2023-02-27T13:39:46.055Z,21.70
2023-02-27T13:40:00.703Z,21.84
2023-02-27T13:40:49.218Z,21.89
2023-02-27T13:41:25.645Z,21.99
2023-02-27T13:41:39.452Z,22.07
2023-02-27T13:41:51.340Z,22.14
2023-02-27T13:42:03.259Z,22.19
2023-02-27T13:42:27.158Z,22.21
2023-02-27T13:42:39.067Z,22.29
2023-02-27T13:42:52.753Z,22.31
2023-02-27T13:43:06.576Z,22.34
2023-02-27T13:43:51.122Z,22.35
2023-02-27T13:44:26.485Z,22.44
2023-02-27T13:44:41.744Z,22.46
2023-02-27T13:45:06.901Z,22.47
2023-02-27T13:45:48.691Z,22.49
2023-02-27T13:46:21.516Z,22.53
2023-02-27T13:46:34.370Z,22.42
2023-02-27T13:46:47.100Z,21.92
2023-02-27T13:47:30.847Z,21.76
2023-02-27T13:47:50.327Z,21.78
2023-02-27T13:48:02.164Z,21.78
2023-02-27T13:48:43.480Z,21.78
2023-02-27T13:49:01.203Z,21.49
2023-02-27T13:49:26.973Z,21.44
2023-02-27T13:49:43.886Z,21.50
2023-02-27T13:50:00.442Z,21.22
2023-02-27T13:50:18.095Z,21.17
2023-02-27T13:50:29.854Z,21.00
2023-02-27T13:50:44.564Z,20.83
2023-02-27T13:50:56.302Z,20.88
2023-02-27T13:51:36.689Z,20.97
2023-02-27T13:51:49.778Z,20.80
2023-02-27T13:52:02.607Z,20.89
2023-02-27T13:52:14.417Z,20.98
2023-02-27T13:52:38.090Z,21.06
2023-02-27T13:52:51.294Z,21.17
2023-02-27T13:53:16.396Z,21.01
2023-02-27T13:53:29.428Z,21.13
2023-02-27T13:53:41.315Z,21.18
2023-02-27T13:54:07.989Z,21.25
2023-02-27T13:54:24.095Z,21.07
2023-02-27T13:54:41.739Z,21.14
2023-02-27T13:54:57.252Z,21.06
2023-02-27T13:55:31.045Z,21.13
2023-02-27T13:55:42.766Z,21.27
2023-02-27T13:56:23.507Z,21.33
2023-02-27T13:56:36.005Z,21.50
2023-02-27T13:56:59.735Z,21.55
2023-02-27T13:57:19.706Z,21.69
2023-02-27T13:57:37.523Z,21.77
2023-02-27T13:57:49.402Z,21.83
2023-02-27T13:58:04.044Z,21.91
2023-02-27T13:58:19.025Z,21.95
2023-02-27T13:58:31.425Z,21.98
2023-02-27T13:58:44.681Z,22.02
2023-02-27T13:58:57.978Z,22.07
2023-02-27T13:59:31.594Z,22.10
2023-02-27T13:59:52.365Z,22.17
2023-02-27T14:00:28.584Z,22.13
2023-02-27T14:00:40.443Z,22.13
2023-02-27T14:01:00.755Z,22.16
2023-02-27T14:01:27.609Z,22.18
2023-02-27T14:01:40.735Z,22.23
2023-02-27T14:02:17.259Z,22.27
2023-02-27T14:02:56.560Z,22.34
2023-02-27T14:03:22.179Z,22.43
2023-02-27T14:03:34.006Z,22.48
2023-02-27T14:03:56.761Z,22.50
2023-02-27T14:04:08.594Z,22.52
2023-02-27T14:04:22.545Z,22.55
2023-02-27T14:04:39.989Z,22.58
2023-02-27T14:04:55.404Z,22.59
2023-02-27T14:05:10.488Z,22.59
2023-02-27T14:05:44.071Z,22.58
2023-02-27T14:06:01.696Z,22.62
2023-02-27T14:06:13.725Z,22.64
2023-02-27T14:06:27.333Z,22.65
2023-02-27T14:06:45.916Z,22.65
2023-02-27T14:07:05.344Z,22.67
2023-02-27T14:07:23.892Z,22.68
2023-02-27T14:07:55.390Z,22.69
2023-02-27T14:08:19.884Z,22.70
2023-02-27T14:08:48.395Z,22.71
2023-02-27T14:09:14.482Z,22.70
2023-02-27T14:09:35.098Z,22.70
2023-02-27T14:09:50.713Z,22.66
2023-02-27T14:10:19.573Z,22.54
2023-02-27T14:10:32.204Z,22.57
2023-02-27T14:11:16.563Z,22.57
2023-02-27T14:11:39.892Z,22.61
2023-02-27T14:11:58.093Z,22.62
2023-02-27T14:12:46.347Z,22.63
2023-02-27T14:12:59.170Z,22.68
2023-02-27T14:13:49.385Z,22.68
2023-02-27T14:14:04.278Z,22.47
2023-02-27T14:14:41.563Z,22.45
2023-02-27T14:14:54.166Z,22.47
2023-02-27T14:15:17.616Z,22.50
2023-02-27T14:15:32.888Z,22.53
2023-02-27T14:15:47.411Z,22.58
2023-02-27T14:16:01.220Z,22.60
2023-02-27T14:16:41.964Z,22.62
2023-02-27T14:16:54.940Z,22.69
2023-02-27T14:17:08.007Z,22.70
2023-02-27T14:17:38.155Z,22.72
2023-02-27T14:18:02.421Z,22.74
2023-02-27T14:19:06.835Z,22.76
2023-02-27T14:19:24.391Z,22.79
2023-02-27T14:19:42.287Z,22.81
2023-02-27T14:19:57.434Z,22.80
2023-02-27T14:20:24.291Z,22.80
2023-02-27T14:20:36.041Z,22.83
2023-02-27T14:20:50.296Z,22.84
2023-02-27T14:21:02.088Z,22.84
2023-02-27T14:21:33.820Z,22.84
2023-02-27T14:21:51.559Z,22.85
2023-02-27T14:22:31.094Z,22.84
2023-02-27T14:23:21.544Z,22.84
2023-02-27T14:23:33.814Z,22.62
2023-02-27T14:23:48.014Z,22.62
2023-02-27T14:23:59.889Z,22.61
2023-02-27T14:24:15.446Z,22.60
2023-02-27T14:25:02.425Z,22.59
2023-02-27T14:25:22.368Z,22.45
2023-02-27T14:25:39.521Z,22.46
2023-02-27T14:25:55.807Z,22.47
2023-02-27T14:26:21.245Z,22.52
2023-02-27T14:26:34.328Z,22.56
2023-02-27T14:26:47.018Z,22.57
2023-02-27T14:27:01.237Z,22.59
2023-02-27T14:27:21.315Z,22.52
2023-02-27T14:27:57.097Z,22.44
2023-02-27T14:28:31.190Z,22.47
2023-02-27T14:28:51.885Z,22.36
2023-02-27T14:29:04.700Z,22.35
2023-02-27T14:29:35.429Z,22.37
2023-02-27T14:29:50.763Z,22.40
2023-02-27T14:30:08.071Z,22.43
2023-02-27T14:30:44.760Z,22.47
2023-02-27T14:31:07.575Z,22.60
2023-02-27T14:31:32.845Z,22.67
2023-02-27T14:31:45.310Z,22.67
2023-02-27T14:32:01.131Z,22.69
2023-02-27T14:32:22.565Z,22.71
2023-02-27T14:32:37.248Z,22.72
2023-02-27T14:32:57.382Z,22.74
2023-02-27T14:33:33.435Z,22.76
2023-02-27T14:33:55.380Z,22.79
2023-02-27T14:34:09.318Z,22.82
2023-02-27T14:34:23.037Z,22.84
2023-02-27T14:34:39.164Z,22.86
2023-02-27T14:34:54.168Z,22.87
2023-02-27T14:35:06.319Z,22.85
2023-02-27T14:35:18.578Z,22.86
2023-02-27T14:35:31.185Z,22.87
2023-02-27T14:35:52.322Z,22.89
2023-02-27T14:36:09.207Z,22.88
2023-02-27T14:36:24.159Z,22.90
2023-02-27T14:37:00.882Z,22.90
2023-02-27T14:37:15.664Z,22.85
2023-02-27T14:37:28.435Z,22.84
2023-02-27T14:37:41.269Z,22.82
2023-02-27T14:37:54.307Z,22.77
2023-02-27T14:38:12.284Z,22.73
2023-02-27T14:38:26.102Z,22.71
2023-02-27T14:38:39.287Z,22.73
2023-02-27T14:38:55.523Z,22.72
2023-02-27T14:39:07.413Z,22.75
2023-02-27T14:39:35.122Z,22.73
2023-02-27T14:39:52.763Z,22.74
2023-02-27T14:40:06.530Z,22.71
2023-02-27T14:40:29.996Z,22.71
2023-02-27T14:40:54.492Z,22.71
2023-02-27T14:41:32.599Z,22.75
2023-02-27T14:42:10.420Z,22.79
2023-02-27T14:42:29.868Z,22.83
2023-02-27T14:43:10.983Z,22.86
2023-02-27T14:43:45.203Z,22.92
2023-02-27T14:43:59.142Z,22.93
2023-02-27T14:44:40.212Z,22.94
2023-02-27T14:44:53.078Z,23.00
2023-02-27T14:45:12.899Z,23.01
2023-02-27T14:45:25.314Z,23.02
2023-02-27T14:45:37.687Z,23.02
2023-02-27T14:45:50.024Z,23.02
2023-02-27T14:46:11.131Z,23.02
2023-02-27T14:46:28.581Z,22.99
2023-02-27T14:46:41.380Z,23.00
2023-02-27T14:46:55.224Z,23.00
2023-02-27T14:47:07.237Z,23.00
2023-02-27T14:47:25.785Z,23.01
2023-02-27T14:47:38.077Z,23.01
2023-02-27T14:47:51.551Z,23.02
2023-02-27T14:48:03.610Z,23.02
2023-02-27T14:48:26.547Z,23.02
2023-02-27T14:48:39.239Z,23.05
2023-02-27T14:49:03.422Z,23.06
2023-02-27T14:49:18.384Z,23.04
2023-02-27T14:49:31.466Z,23.04
2023-02-27T14:49:46.223Z,23.05
2023-02-27T14:50:06.390Z,23.04
2023-02-27T14:50:29.378Z,23.02
2023-02-27T14:50:42.384Z,23.02
2023-02-27T14:50:54.851Z,23.04
2023-02-27T14:51:07.026Z,23.04
2023-02-27T14:51:18.978Z,23.04
2023-02-27T14:51:36.236Z,23.01
2023-02-27T14:51:48.606Z,23.03
2023-02-27T14:52:22.011Z,23.02
2023-02-27T14:52:43.590Z,23.02
2023-02-27T14:52:55.868Z,23.00
2023-02-27T14:53:21.862Z,23.03
2023-02-27T14:53:35.072Z,23.02
2023-02-27T14:54:07.141Z,23.02
2023-02-27T14:54:22.507Z,23.02
2023-02-27T14:54:34.293Z,23.02
2023-02-27T14:54:46.034Z,23.02
2023-02-27T14:55:38.497Z,23.02
2023-02-27T14:55:57.664Z,23.05
2023-02-27T14:56:19.087Z,23.06
2023-02-27T14:56:31.984Z,23.08
2023-02-27T14:57:05.173Z,23.09
2023-02-27T14:57:29.097Z,23.07
2023-02-27T14:57:40.966Z,23.04
2023-02-27T14:58:01.972Z,23.06
2023-02-27T14:58:13.532Z,23.06
2023-02-27T14:58:26.756Z,23.05
2023-02-27T14:58:38.636Z,23.07
2023-02-27T14:59:03.495Z,23.07
2023-02-27T14:59:31.189Z,23.06
2023-02-27T14:59:45.998Z,23.06
2023-02-27T14:59:57.738Z,23.07
2023-02-27T15:00:35.040Z,23.08
2023-02-27T15:00:53.819Z,23.08
2023-02-27T15:01:09.016Z,23.08
2023-02-27T15:01:20.978Z,23.07
2023-02-27T15:01:37.004Z,23.07
2023-02-27T15:01:49.428Z,23.08
2023-02-27T15:02:04.578Z,23.09
2023-02-27T15:02:22.240Z,23.09
2023-02-27T15:02:36.334Z,23.08
2023-02-27T15:02:48.200Z,23.08
2023-02-27T15:03:00.516Z,23.06
2023-02-27T15:03:22.864Z,23.09
2023-02-27T15:03:40.150Z,23.07
2023-02-27T15:03:56.669Z,23.09
2023-02-27T15:04:15.298Z,23.11
2023-02-27T15:04:29.349Z,23.10
2023-02-27T15:04:41.115Z,23.13
2023-02-27T15:05:15.887Z,23.14
2023-02-27T15:05:34.871Z,23.14
2023-02-27T15:05:49.123Z,23.15
2023-02-27T15:06:04.042Z,23.16
2023-02-27T15:06:45.424Z,23.14
2023-02-27T15:06:59.413Z,23.16
2023-02-27T15:07:24.847Z,23.18
2023-02-27T15:07:36.860Z,23.18
2023-02-27T15:07:48.821Z,23.19
2023-02-27T15:08:00.749Z,23.20
2023-02-27T15:08:20.709Z,23.19
2023-02-27T15:08:39.644Z,23.17
2023-02-27T15:08:54.506Z,23.17
2023-02-27T15:09:06.866Z,23.14
2023-02-27T15:09:26.247Z,23.15
2023-02-27T15:09:43.255Z,23.12
2023-02-27T15:09:57.979Z,23.14
2023-02-27T15:10:17.939Z,23.13
2023-02-27T15:10:33.722Z,23.11
2023-02-27T15:10:46.095Z,23.13
2023-02-27T15:11:00.443Z,23.13
2023-02-27T15:11:15.503Z,23.13
2023-02-27T15:11:27.953Z,23.13
2023-02-27T15:11:43.171Z,23.12
2023-02-27T15:12:03.984Z,23.11
2023-02-27T15:12:19.793Z,23.13
2023-02-27T15:12:36.758Z,23.14
2023-02-27T15:12:48.864Z,23.12
2023-02-27T15:13:02.324Z,23.14
2023-02-27T15:13:30.514Z,23.12
2023-02-27T15:13:44.646Z,23.13
2023-02-27T15:14:02.328Z,23.14
2023-02-27T15:14:20.951Z,23.13
2023-02-27T15:14:39.486Z,23.13
2023-02-27T15:14:55.072Z,23.13
2023-02-27T15:15:09.917Z,23.15
2023-02-27T15:15:22.006Z,23.14
2023-02-27T15:15:33.917Z,23.15
2023-02-27T15:15:45.733Z,23.15
2023-02-27T15:16:18.883Z,23.15
2023-02-27T15:16:34.605Z,23.16
2023-02-27T15:16:47.256Z,23.15
2023-02-27T15:16:59.492Z,23.14
2023-02-27T15:17:26.737Z,23.13
2023-02-27T15:17:48.094Z,23.14
2023-02-27T15:18:01.144Z,23.13
2023-02-27T15:18:14.741Z,23.15
2023-02-27T15:18:26.597Z,23.16
2023-02-27T15:18:40.624Z,23.16
2023-02-27T15:18:58.451Z,23.16
2023-02-27T15:19:19.575Z,23.15
2023-02-27T15:19:31.397Z,23.16
2023-02-27T15:19:54.444Z,23.16
2023-02-27T15:20:30.320Z,23.17
2023-02-27T15:20:42.122Z,23.19
2023-02-27T15:20:59.300Z,23.18
2023-02-27T15:21:15.031Z,23.17
2023-02-27T15:21:31.851Z,23.18
2023-02-27T15:21:52.465Z,23.17
2023-02-27T15:22:21.419Z,23.15
2023-02-27T15:22:40.071Z,23.15
2023-02-27T15:22:52.128Z,23.16
2023-02-27T15:23:21.692Z,23.15
2023-02-27T15:23:33.586Z,23.17
2023-02-27T15:23:54.499Z,23.21
2023-02-27T15:24:09.190Z,23.19
2023-02-27T15:24:43.794Z,23.19
2023-02-27T15:25:03.136Z,23.18
2023-02-27T15:25:47.372Z,23.21
2023-02-27T15:26:00.290Z,23.20
2023-02-27T15:26:16.710Z,23.19
2023-02-27T15:26:31.253Z,23.16
2023-02-27T15:26:45.415Z,23.16
2023-02-27T15:27:10.822Z,23.18
2023-02-27T15:27:24.796Z,23.21
2023-02-27T15:27:39.937Z,23.22
2023-02-27T15:27:51.877Z,23.22
2023-02-27T15:28:07.366Z,23.25
2023-02-27T15:28:24.296Z,23.25
2023-02-27T15:28:38.483Z,23.26
2023-02-27T15:28:51.303Z,23.26
2023-02-27T15:29:06.725Z,23.26
2023-02-27T15:29:24.356Z,23.27
2023-02-27T15:29:48.564Z,23.26
2023-02-27T15:30:02.233Z,23.24
2023-02-27T15:30:22.165Z,23.23
2023-02-27T15:30:34.034Z,23.22
2023-02-27T15:30:50.507Z,23.21
2023-02-27T15:31:02.522Z,23.18
2023-02-27T15:31:22.227Z,23.22
2023-02-27T15:31:35.199Z,23.23
2023-02-27T15:31:47.570Z,23.23
2023-02-27T15:31:59.693Z,23.24
2023-02-27T15:32:21.523Z,23.24
2023-02-27T15:32:36.354Z,23.25
2023-02-27T15:32:49.360Z,23.25
2023-02-27T15:33:03.126Z,23.26
2023-02-27T15:33:16.676Z,23.25
2023-02-27T15:33:32.409Z,23.29
2023-02-27T15:33:44.268Z,23.30
2023-02-27T15:33:57.160Z,23.28
2023-02-27T15:34:14.063Z,23.30
2023-02-27T15:34:26.346Z,23.28
2023-02-27T15:34:42.928Z,23.27
2023-02-27T15:34:57.163Z,23.29
2023-02-27T15:35:20.655Z,23.28
2023-02-27T15:35:37.712Z,23.26
2023-02-27T15:35:49.706Z,23.25
2023-02-27T15:36:02.035Z,23.25
2023-02-27T15:36:45.152Z,23.25
2023-02-27T15:36:59.300Z,23.25
2023-02-27T15:37:20.018Z,23.25
2023-02-27T15:37:34.238Z,23.24
2023-02-27T15:37:53.357Z,23.23
2023-02-27T15:38:05.568Z,23.20
2023-02-27T15:38:32.437Z,23.22
2023-02-27T15:38:44.261Z,23.22
2023-02-27T15:39:17.524Z,23.24
2023-02-27T15:39:31.948Z,23.27
2023-02-27T15:39:45.719Z,23.28
2023-02-27T15:39:59.588Z,23.28
2023-02-27T15:40:24.754Z,23.31
2023-02-27T15:40:37.587Z,23.27
2023-02-27T15:40:49.600Z,23.28
2023-02-27T15:41:03.930Z,23.27
2023-02-27T15:41:17.471Z,23.27
2023-02-27T15:41:29.938Z,23.26
2023-02-27T15:41:48.809Z,23.26
2023-02-27T15:42:05.532Z,23.26
2023-02-27T15:42:25.691Z,23.27
2023-02-27T15:42:37.920Z,23.25
2023-02-27T15:42:50.684Z,23.26
2023-02-27T15:43:03.394Z,23.28
2023-02-27T15:43:15.340Z,23.29
2023-02-27T15:43:28.978Z,23.28
2023-02-27T15:43:41.592Z,23.30
2023-02-27T15:43:54.155Z,23.31
2023-02-27T15:44:06.325Z,23.31
2023-02-27T15:44:23.678Z,23.32
2023-02-27T15:44:42.595Z,23.33
2023-02-27T15:44:55.723Z,23.33
2023-02-27T15:45:08.526Z,23.28
2023-02-27T15:45:24.855Z,23.25
2023-02-27T15:45:37.368Z,23.25
2023-02-27T15:45:50.885Z,23.26
2023-02-27T15:46:03.231Z,23.26
2023-02-27T15:46:15.158Z,23.26
2023-02-27T15:46:27.380Z,23.25
2023-02-27T15:46:40.219Z,23.23
2023-02-27T15:46:53.986Z,23.22
2023-02-27T15:47:07.919Z,23.23
2023-02-27T15:47:32.055Z,23.22
2023-02-27T15:47:44.124Z,23.24
2023-02-27T15:47:56.494Z,23.23
2023-02-27T15:48:14.776Z,23.22
2023-02-27T15:48:27.198Z,23.25
2023-02-27T15:48:38.994Z,23.26
2023-02-27T15:48:52.232Z,23.25
2023-02-27T15:49:04.986Z,23.25
2023-02-27T15:49:21.772Z,23.26
2023-02-27T15:49:33.819Z,23.27
2023-02-27T15:49:46.246Z,23.27
2023-02-27T15:50:16.389Z,23.27
2023-02-27T15:50:33.806Z,23.27
